Time;durP1;ratioP1;P1;durP2;ratioP2;P2;SDS_P1;SDS_P2;PMS_P1;PMS_P2;Temp;Humidity;BMP_temperature;BMP_pressure;BME280_temperature;BME280_humidity;BME280_pressure;Samples;Min_cycle;Max_cycle;Signal;HPM_P1;HPM_P2
2021/12/27 00:01:55;;;;;;;60.22;29.10;;;;;;;2.93;100.00;96750.28;5063345;28;20139;-67
2021/12/27 00:04:22;;;;;;;58.40;29.70;;;;;;;3.00;100.00;96760.72;5064870;28;20079;-67
2021/12/27 00:06:48;;;;;;;61.65;28.27;;;;;;;3.12;100.00;96741.66;5042849;28;20049;-59
2021/12/27 00:09:15;;;;;;;53.63;26.48;;;;;;;3.22;100.00;96752.22;5044341;28;20045;-67
2021/12/27 00:11:43;;;;;;;55.25;26.00;;;;;;;2.99;100.00;96750.88;5044183;28;20082;-67
2021/12/27 00:14:09;;;;;;;53.10;25.27;;;;;;;2.53;100.00;96709.91;5044287;28;20057;-66
2021/12/27 00:16:36;;;;;;;68.15;32.90;;;;;;;3.01;100.00;96773.25;5044391;28;20044;-60
2021/12/27 00:19:03;;;;;;;74.20;33.17;;;;;;;3.03;100.00;96754.56;5044728;28;20189;-60
2021/12/27 00:21:30;;;;;;;68.05;31.15;;;;;;;2.79;100.00;96710.59;5043886;28;20055;-67
2021/12/27 00:23:57;;;;;;;71.32;33.17;;;;;;;2.64;100.00;96686.56;5043906;28;20049;-59
2021/12/27 00:26:23;;;;;;;75.30;33.35;;;;;;;2.56;100.00;96690.13;5043571;28;20049;-60
2021/12/27 00:28:51;;;;;;;67.13;32.90;;;;;;;3.05;100.00;96752.31;5043727;28;20114;-67
2021/12/27 00:31:18;;;;;;;71.95;32.65;;;;;;;3.05;100.00;96746.84;5043590;28;20052;-59
2021/12/27 00:33:45;;;;;;;67.15;31.17;;;;;;;3.10;100.00;96754.84;5025742;28;20059;-59
2021/12/27 00:36:12;;;;;;;71.63;33.38;;;;;;;3.07;100.00;96756.31;5043870;28;20060;-66
2021/12/27 00:38:39;;;;;;;78.68;34.83;;;;;;;2.96;100.00;96760.56;5043585;28;20048;-60
2021/12/27 00:41:06;;;;;;;90.72;37.60;;;;;;;3.08;100.00;96757.91;5044019;28;20049;-60
2021/12/27 00:43:32;;;;;;;83.15;35.42;;;;;;;3.11;100.00;96756.47;5043850;28;20440;-67
2021/12/27 00:45:59;;;;;;;82.20;37.38;;;;;;;3.05;100.00;96757.78;5043679;28;20045;-62
2021/12/27 00:48:26;;;;;;;87.32;37.72;;;;;;;2.95;100.00;96725.31;5043313;28;20063;-67
2021/12/27 00:50:53;;;;;;;94.95;41.03;;;;;;;3.09;100.00;96736.84;5043372;28;20072;-59
2021/12/27 00:53:20;;;;;;;95.93;41.60;;;;;;;3.01;100.00;96729.47;5043431;28;20448;-66
2021/12/27 00:55:46;;;;;;;82.82;33.40;;;;;;;2.74;100.00;96670.56;5043619;28;20459;-60
2021/12/27 00:58:13;;;;;;;55.65;25.08;;;;;;;3.12;100.00;96736.19;5043819;28;20056;-60
2021/12/27 01:00:40;;;;;;;49.45;22.23;;;;;;;3.13;100.00;96737.78;5025599;28;20053;-60
2021/12/27 01:03:08;;;;;;;56.33;25.13;;;;;;;0.54;100.00;96329.84;5043558;28;20056;-67
2021/12/27 01:05:35;;;;;;;52.50;21.30;;;;;;;2.55;100.00;96633.81;5043303;28;20132;-62
2021/12/27 01:08:02;;;;;;;38.05;17.00;;;;;;;3.06;100.00;96737.50;5043563;28;20051;-62
2021/12/27 01:15:48;;;;;;;23.33;11.00;;;;;;;2.75;100.00;96679.59;5043145;28;20049;-63
2021/12/27 01:18:20;;;;;;;40.63;14.57;;;;;;;2.90;100.00;96689.94;5025426;28;20049;-60
2021/12/27 01:20:47;;;;;;;91.10;35.78;;;;;;;3.09;100.00;96736.84;5025480;28;20053;-66
2021/12/27 01:23:14;;;;;;;70.60;28.45;;;;;;;2.78;100.00;96742.59;5025630;28;20511;-60
2021/12/27 01:25:41;;;;;;;58.08;27.55;;;;;;;2.77;100.00;96751.13;5028004;28;20056;-66
2021/12/27 01:28:08;;;;;;;64.05;27.08;;;;;;;2.68;100.00;96753.09;5028910;28;20057;-59
2021/12/27 01:30:38;;;;;;;52.38;24.45;;;;;;;2.46;100.00;96751.41;5029196;28;20067;-67
2021/12/27 01:33:06;;;;;;;41.83;21.42;;;;;;;2.51;100.00;96745.75;5028689;28;20045;-59
2021/12/27 01:35:34;;;;;;;47.10;21.90;;;;;;;2.16;100.00;96702.44;5046843;28;20444;-67
2021/12/27 01:38:02;;;;;;;49.58;22.88;;;;;;;2.27;100.00;96709.16;5046584;28;20055;-60
2021/12/27 01:40:30;;;;;;;48.60;23.95;;;;;;;2.42;100.00;96739.50;5046515;28;20558;-66
2021/12/27 01:43:05;;;;;;;45.92;22.77;;;;;;;2.47;100.00;96735.78;5046994;28;20457;-60
2021/12/27 01:45:41;;;;;;;56.38;25.02;;;;;;;2.18;100.00;96678.34;5029383;28;20055;-62
2021/12/27 01:48:09;;;;;;;58.38;25.77;;;;;;;2.24;100.00;96671.56;5029009;28;20059;-66
2021/12/27 01:50:42;;;;;;;63.30;29.00;;;;;;;2.61;100.00;96703.59;5046956;28;20049;-66
2021/12/27 01:53:10;;;;;;;71.97;31.40;;;;;;;2.76;100.00;96716.72;5047061;28;20496;-67
2021/12/27 01:55:38;;;;;;;70.85;30.15;;;;;;;2.56;100.00;96679.19;5047054;28;20049;-62
2021/12/27 01:58:05;;;;;;;81.20;32.92;;;;;;;2.81;100.00;96711.06;5046630;28;20484;-66
2021/12/27 02:00:35;;;;;;;77.05;32.03;;;;;;;2.88;100.00;96714.09;5046553;28;20049;-62
2021/12/27 02:03:03;;;;;;;94.78;39.50;;;;;;;2.61;100.00;96714.50;5028647;28;20068;-59
2021/12/27 02:05:31;;;;;;;97.50;39.75;;;;;;;2.66;100.00;96717.06;5046630;28;20532;-67
2021/12/27 02:07:58;;;;;;;88.68;37.45;;;;;;;2.63;100.00;96706.81;5039260;28;20052;-60
2021/12/27 02:10:25;;;;;;;80.25;35.28;;;;;;;2.33;100.00;96664.13;5046695;28;20059;-63
2021/12/27 02:12:52;;;;;;;71.85;30.95;;;;;;;2.25;100.00;96634.91;5046204;28;20040;-67
2021/12/27 02:15:19;;;;;;;73.53;27.05;;;;;;;2.82;100.00;96702.53;5028194;28;20049;-60
2021/12/27 02:17:45;;;;;;;63.67;27.77;;;;;;;2.77;100.00;96690.97;5046289;28;20057;-59
2021/12/27 02:20:20;;;;;;;56.80;24.90;;;;;;;2.81;100.00;96697.41;5046262;28;20045;-58
2021/12/27 02:22:48;;;;;;;41.92;17.67;;;;;;;2.93;100.00;96705.69;5046405;28;20049;-59
2021/12/27 02:25:15;;;;;;;38.97;16.60;;;;;;;2.92;100.00;96687.69;5044828;28;20056;-59
2021/12/27 02:27:43;;;;;;;43.00;16.65;;;;;;;2.76;100.00;96694.84;5045757;28;20052;-61
2021/12/27 02:30:13;;;;;;;54.72;24.17;;;;;;;2.41;100.00;96660.56;5045869;28;20053;-66
2021/12/27 02:32:49;;;;;;;64.05;24.60;;;;;;;2.82;100.00;96693.53;5045859;28;20507;-60
2021/12/27 02:35:24;;;;;;;47.60;20.63;;;;;;;2.92;100.00;96698.63;5027685;28;20057;-66
2021/12/27 02:37:52;;;;;;;50.90;24.52;;;;;;;2.41;100.00;96638.72;5043532;28;20069;-59
2021/12/27 02:40:20;;;;;;;78.30;42.13;;;;;;;2.89;100.00;96699.28;5045535;28;20534;-65
2021/12/27 02:43:00;;;;;;;66.43;28.35;;;;;;;2.93;100.00;96702.97;5044573;28;20051;-63
2021/12/27 02:45:29;;;;;;;59.85;25.10;;;;;;;3.07;100.00;96718.03;5045320;28;20516;-67
2021/12/27 02:47:57;;;;;;;57.33;24.80;;;;;;;2.91;100.00;96713.41;5045783;28;20102;-66
2021/12/27 02:50:26;;;;;;;66.82;29.77;;;;;;;1.95;100.00;96579.44;5045364;28;20053;-66
2021/12/27 02:52:53;;;;;;;57.65;27.00;;;;;;;2.84;100.00;96705.75;5043989;28;20057;-66
2021/12/27 02:55:20;;;;;;;63.65;31.20;;;;;;;2.04;100.00;96585.66;5045585;28;20049;-66
2021/12/27 02:57:50;;;;;;;53.65;27.10;;;;;;;2.74;100.00;96697.09;5045354;28;20137;-67
2021/12/27 03:00:43;;;;;;;54.35;23.85;;;;;;;2.80;100.00;96695.78;5045562;28;20119;-62
2021/12/27 03:03:10;;;;;;;54.45;26.05;;;;;;;2.40;100.00;96634.38;5045845;28;20052;-59
2021/12/27 03:05:38;;;;;;;56.50;27.52;;;;;;;2.86;100.00;96691.75;5045656;28;20052;-61
2021/12/27 03:08:05;;;;;;;47.70;20.95;;;;;;;2.73;100.00;96692.78;5045316;28;20049;-66
2021/12/27 03:10:34;;;;;;;39.20;16.65;;;;;;;2.69;100.00;96695.34;5045259;28;20049;-59
2021/12/27 03:13:03;;;;;;;43.78;19.33;;;;;;;2.61;100.00;96684.44;5045096;28;20056;-65
2021/12/27 03:15:30;;;;;;;37.13;16.17;;;;;;;2.62;100.00;96678.69;5044909;28;20053;-59
2021/12/27 03:17:56;;;;;;;36.65;15.15;;;;;;;2.61;100.00;96678.97;5043726;28;20303;-65
2021/12/27 03:20:26;;;;;;;38.83;16.65;;;;;;;2.65;100.00;96699.06;5027065;28;20487;-58
2021/12/27 03:22:54;;;;;;;31.20;13.15;;;;;;;2.65;100.00;96699.06;5045339;28;20049;-64
2021/12/27 03:25:24;;;;;;;28.02;11.27;;;;;;;2.67;100.00;96681.19;5044911;28;20045;-65
2021/12/27 03:27:52;;;;;;;29.52;11.27;;;;;;;2.80;100.00;96679.38;5027118;28;20110;-66
2021/12/27 03:30:22;;;;;;;22.88;10.20;;;;;;;2.46;100.00;96605.75;5044430;28;20071;-66
2021/12/27 03:32:50;;;;;;;32.55;14.07;;;;;;;2.65;100.00;96622.53;5045042;28;20505;-65
2021/12/27 03:35:26;;;;;;;41.22;19.63;;;;;;;2.89;100.00;96683.66;5043412;28;20055;-68
2021/12/27 03:37:56;;;;;;;43.03;18.35;;;;;;;2.85;100.00;96681.94;5027034;28;20057;-59
2021/12/27 03:40:24;;;;;;;41.00;19.05;;;;;;;2.64;100.00;96640.06;5044008;28;20064;-66
2021/12/27 03:42:51;;;;;;;42.58;17.35;;;;;;;2.57;100.00;96653.44;5045147;28;20049;-66
2021/12/27 03:45:20;;;;;;;48.92;21.45;;;;;;;2.65;100.00;96667.09;5044866;28;20061;-65
2021/12/27 03:47:47;;;;;;;53.25;25.00;;;;;;;2.32;100.00;96624.28;5044556;28;20079;-65
2021/12/27 03:50:14;;;;;;;50.15;21.90;;;;;;;2.61;100.00;96670.78;5026675;28;20332;-58
2021/12/27 03:52:41;;;;;;;59.00;23.50;;;;;;;2.55;100.00;96663.91;5044697;28;20053;-66
2021/12/27 03:55:10;;;;;;;74.60;36.28;;;;;;;2.15;100.00;96586.13;5026722;28;20057;-65
2021/12/27 03:57:40;;;;;;;51.88;23.52;;;;;;;2.66;100.00;96684.25;5044618;28;20139;-60
2021/12/27 04:02:50;;;;;;;51.47;22.40;;;;;;;2.59;100.00;96673.06;5043792;28;20045;-66
2021/12/27 04:05:18;;;;;;;54.85;22.45;;;;;;;2.54;100.00;96682.25;5043994;28;20055;-66
2021/12/27 04:07:47;;;;;;;51.05;24.45;;;;;;;2.58;100.00;96683.19;5044346;28;20633;-59
2021/12/27 04:10:14;;;;;;;54.30;24.02;;;;;;;2.69;100.00;96681.69;5043883;28;20045;-59
2021/12/27 04:12:41;;;;;;;70.22;32.65;;;;;;;2.66;100.00;96681.53;5026070;28;20508;-66
2021/12/27 04:15:09;;;;;;;79.95;37.05;;;;;;;2.57;100.00;96697.19;5026359;28;20048;-59
2021/12/27 04:17:36;;;;;;;83.00;36.42;;;;;;;2.45;100.00;96672.47;5043769;28;20060;-66
2021/12/27 04:20:04;;;;;;;88.35;37.67;;;;;;;2.03;100.00;96605.91;5043542;28;20060;-64
2021/12/27 04:22:33;;;;;;;91.13;38.15;;;;;;;2.49;100.00;96684.34;5043877;28;20060;-68
2021/12/27 04:25:14;;;;;;;69.60;30.77;;;;;;;2.44;100.00;96681.78;5043956;28;20098;-66
2021/12/27 04:27:41;;;;;;;60.38;28.80;;;;;;;2.68;100.00;96692.94;5044039;28;20053;-66
2021/12/27 04:30:08;;;;;;;68.72;29.63;;;;;;;2.77;100.00;96685.50;5043709;28;20053;-59
2021/12/27 04:32:35;;;;;;;58.35;27.73;;;;;;;2.87;100.00;96687.88;5043680;28;20132;-66
2021/12/27 04:35:03;;;;;;;86.95;36.85;;;;;;;2.89;100.00;96693.81;5043462;28;20055;-65
2021/12/27 04:37:30;;;;;;;109.18;44.58;;;;;;;2.91;100.00;96718.91;5043392;28;20048;-61
2021/12/27 04:39:58;;;;;;;154.63;58.85;;;;;;;2.94;100.00;96696.38;5043190;28;20052;-60
2021/12/27 04:42:27;;;;;;;149.63;63.00;;;;;;;2.81;100.00;96681.00;5043597;28;20049;-62
2021/12/27 04:44:54;;;;;;;165.45;65.05;;;;;;;3.08;100.00;96686.00;5043799;28;20053;-66
2021/12/27 04:47:23;;;;;;;136.07;56.10;;;;;;;3.02;100.00;96688.09;5044074;28;20055;-60
2021/12/27 04:49:49;;;;;;;136.65;56.78;;;;;;;3.08;100.00;96696.94;5044018;28;20056;-59
2021/12/27 04:52:16;;;;;;;118.03;49.38;;;;;;;3.05;100.00;96692.91;5043663;28;20048;-66
2021/12/27 04:54:43;;;;;;;99.38;40.38;;;;;;;2.75;100.00;96704.19;5025728;28;20506;-66
2021/12/27 04:57:10;;;;;;;83.35;35.80;;;;;;;2.38;100.00;96700.31;5043395;28;20049;-66
2021/12/27 04:59:36;;;;;;;94.60;39.80;;;;;;;2.19;100.00;96704.53;5042511;28;20045;-59
2021/12/27 05:02:04;;;;;;;52.13;23.95;;;;;;;2.10;100.00;96709.22;5025512;28;20056;-66
2021/12/27 05:04:31;;;;;;;65.63;28.35;;;;;;;1.79;100.00;96626.72;5043687;28;20459;-61
2021/12/27 05:06:58;;;;;;;69.85;32.80;;;;;;;2.41;100.00;96698.84;5043436;28;20051;-61
2021/12/27 05:09:24;;;;;;;77.43;35.97;;;;;;;2.53;100.00;96720.84;5042902;28;20048;-66
2021/12/27 05:11:51;;;;;;;90.47;38.17;;;;;;;2.62;100.00;96733.34;5024759;28;20049;-68
2021/12/27 05:14:18;;;;;;;93.72;41.22;;;;;;;2.63;100.00;96718.53;5025129;28;20053;-66
2021/12/27 05:16:45;;;;;;;89.63;40.55;;;;;;;2.46;100.00;96652.19;5024950;28;20064;-66
2021/12/27 05:19:12;;;;;;;92.13;39.80;;;;;;;2.90;100.00;96701.69;5025115;28;20045;-66
2021/12/27 05:21:39;;;;;;;109.00;47.70;;;;;;;2.89;100.00;96699.28;5042983;28;20637;-66
2021/12/27 05:24:07;;;;;;;108.82;47.53;;;;;;;2.64;100.00;96656.47;5042808;28;20064;-66
2021/12/27 05:26:34;;;;;;;107.10;46.00;;;;;;;2.54;100.00;96659.56;5043124;28;20064;-67
2021/12/27 05:29:00;;;;;;;91.57;42.35;;;;;;;2.91;100.00;96707.94;5043282;28;20088;-59
2021/12/27 05:31:30;;;;;;;127.65;53.70;;;;;;;2.94;100.00;96699.13;5043293;28;20299;-59
2021/12/27 05:33:57;;;;;;;115.88;51.47;;;;;;;2.97;100.00;96701.19;5043729;28;20082;-59
2021/12/27 05:36:23;;;;;;;78.15;35.88;;;;;;;3.00;100.00;96704.03;5043391;28;20599;-59
2021/12/27 05:38:50;;;;;;;73.75;29.58;;;;;;;2.85;100.00;96698.34;5043105;28;20052;-66
2021/12/27 05:41:17;;;;;;;64.72;27.30;;;;;;;2.89;100.00;96702.81;5024982;28;20053;-61
2021/12/27 05:43:44;;;;;;;65.57;29.67;;;;;;;2.90;100.00;96717.31;5025119;28;20055;-59
2021/12/27 05:46:10;;;;;;;81.85;35.47;;;;;;;2.57;100.00;96647.97;5024459;28;20056;-66
2021/12/27 05:48:37;;;;;;;50.95;24.48;;;;;;;2.97;100.00;96706.66;5025272;28;20056;-62
2021/12/27 05:51:04;;;;;;;73.10;31.58;;;;;;;1.70;100.00;96514.00;5042631;28;20045;-59
2021/12/27 05:53:31;;;;;;;66.15;30.77;;;;;;;2.94;100.00;96704.59;5042245;28;20052;-66
2021/12/27 05:55:57;;;;;;;77.53;30.02;;;;;;;2.93;100.00;96701.03;5043133;28;20045;-59
2021/12/27 05:58:25;;;;;;;73.28;31.25;;;;;;;2.94;100.00;96707.31;5042756;28;20140;-66
2021/12/27 06:00:52;;;;;;;57.97;27.13;;;;;;;2.65;100.00;96666.28;5042940;28;20178;-61
2021/12/27 06:03:20;;;;;;;77.57;34.35;;;;;;;2.82;100.00;96647.03;5042740;28;20088;-61
2021/12/27 06:05:47;;;;;;;61.63;28.92;;;;;;;3.25;100.00;96698.75;5042438;28;20060;-59
2021/12/27 06:08:13;;;;;;;53.05;24.55;;;;;;;3.34;100.00;96722.19;5042831;28;20049;-66
2021/12/27 06:10:40;;;;;;;161.73;67.38;;;;;;;3.42;100.00;96699.44;5025563;28;20049;-59
2021/12/27 06:13:07;;;;;;;148.98;66.63;;;;;;;3.38;100.00;96711.41;5045939;28;20053;-66
2021/12/27 06:15:34;;;;;;;146.80;58.15;;;;;;;3.28;100.00;96704.38;5027941;28;20057;-58
2021/12/27 06:18:01;;;;;;;120.60;49.30;;;;;;;3.07;100.00;96692.59;5046940;28;20474;-66
2021/12/27 06:20:28;;;;;;;97.93;43.78;;;;;;;3.17;100.00;96721.50;5046631;28;20057;-66
2021/12/27 06:22:57;;;;;;;103.88;43.47;;;;;;;2.83;100.00;96651.38;5028611;28;20049;-59
2021/12/27 06:25:25;;;;;;;109.20;44.40;;;;;;;3.31;99.82;96706.44;5028111;28;20044;-60
2021/12/27 06:27:52;;;;;;;84.93;35.28;;;;;;;3.30;100.00;96698.56;5046354;28;20051;-65
2021/12/27 06:30:20;;;;;;;65.95;31.45;;;;;;;3.17;100.00;96678.53;5045993;28;20534;-66
2021/12/27 06:32:48;;;;;;;84.72;36.97;;;;;;;2.79;100.00;96626.63;5028279;28;20048;-59
2021/12/27 06:35:16;;;;;;;63.70;30.33;;;;;;;3.26;100.00;96709.38;5045799;28;20523;-60
2021/12/27 06:37:44;;;;;;;58.33;24.88;;;;;;;3.41;100.00;96711.53;5046231;28;20165;-62
2021/12/27 06:40:13;;;;;;;56.78;26.80;;;;;;;3.10;100.00;96661.81;5045684;28;20067;-65
2021/12/27 06:42:40;;;;;;;37.53;18.38;;;;;;;3.46;100.00;96725.03;5045711;28;20091;-66
2021/12/27 06:45:07;;;;;;;45.70;24.42;;;;;;;3.02;100.00;96685.38;5045395;28;20057;-66
2021/12/27 06:47:34;;;;;;;46.00;22.38;;;;;;;3.41;100.00;96722.50;5045554;28;20053;-66
2021/12/27 06:50:01;;;;;;;174.50;52.45;;;;;;;3.08;100.00;96631.28;5045627;28;20055;-59
2021/12/27 06:52:27;;;;;;;101.72;36.03;;;;;;;3.89;100.00;96727.44;5045559;28;20048;-66
2021/12/27 06:54:54;;;;;;;66.40;26.08;;;;;;;4.07;100.00;96701.47;5027407;28;20869;-59
2021/12/27 06:57:29;;;;;;;48.50;20.52;;;;;;;3.98;100.00;96644.00;5028601;28;20143;-66
2021/12/27 06:59:57;;;;;;;52.88;25.10;;;;;;;4.67;100.00;96709.88;5045189;28;20524;-66
2021/12/27 07:02:24;;;;;;;67.53;28.30;;;;;;;5.02;100.00;96702.81;5045366;28;20583;-59
2021/12/27 07:04:51;;;;;;;31.65;15.50;;;;;;;5.31;95.07;96718.25;5045368;28;20056;-59
2021/12/27 07:07:19;;;;;;;60.22;25.85;;;;;;;5.44;93.05;96711.59;5033929;28;20462;-60
2021/12/27 07:09:46;;;;;;;75.05;30.75;;;;;;;5.39;92.02;96682.44;5047103;28;20147;-66
2021/12/27 07:12:12;;;;;;;57.15;25.60;;;;;;;5.46;91.18;96654.38;5065110;28;20057;-65
2021/12/27 07:14:40;;;;;;;52.53;24.40;;;;;;;5.88;90.91;96694.16;5065043;28;20060;-59
2021/12/27 07:17:07;;;;;;;66.82;29.58;;;;;;;5.88;90.92;96694.16;5047112;28;20072;-66
2021/12/27 07:19:34;;;;;;;110.10;46.20;;;;;;;6.06;90.59;96689.94;5065557;28;20409;-66
2021/12/27 07:22:01;;;;;;;100.38;45.90;;;;;;;6.29;90.42;96691.00;5064709;28;20482;-64
2021/12/27 07:24:28;;;;;;;99.57;45.67;;;;;;;6.40;90.45;96683.84;5065418;28;20056;-67
2021/12/27 07:26:54;;;;;;;99.07;47.72;;;;;;;6.51;90.32;96693.19;5064996;28;20076;-60
2021/12/27 07:29:21;;;;;;;102.22;51.50;;;;;;;6.61;90.22;96683.59;5046850;28;20044;-63
2021/12/27 07:31:48;;;;;;;89.05;46.78;;;;;;;6.65;90.00;96684.50;5065040;28;20063;-67
2021/12/27 07:34:17;;;;;;;95.55;49.47;;;;;;;6.95;89.86;96683.72;5064842;28;20115;-66
2021/12/27 07:36:44;;;;;;;92.35;48.08;;;;;;;7.16;88.79;96666.91;5046641;28;20530;-67
2021/12/27 07:39:11;;;;;;;92.55;47.58;;;;;;;7.44;87.83;96695.13;5064444;28;20048;-65
2021/12/27 07:41:38;;;;;;;81.82;43.38;;;;;;;7.68;86.65;96690.16;5064605;28;20087;-66
2021/12/27 07:44:05;;;;;;;69.55;37.70;;;;;;;7.38;84.43;96631.22;5064323;28;20055;-64
2021/12/27 07:46:32;;;;;;;52.85;30.25;;;;;;;7.90;83.85;96674.06;5064119;28;20684;-62
2021/12/27 07:48:59;;;;;;;53.05;29.08;;;;;;;8.27;83.13;96680.78;5063926;28;20062;-63
2021/12/27 07:51:26;;;;;;;59.47;30.15;;;;;;;8.42;81.50;96679.91;5064164;28;20135;-61
2021/12/27 07:53:52;;;;;;;63.05;34.08;;;;;;;8.60;81.14;96681.81;5046214;28;20056;-67
2021/12/27 07:56:19;;;;;;;44.70;25.70;;;;;;;8.46;80.08;96664.19;5063888;28;20557;-66
2021/12/27 07:58:46;;;;;;;58.50;30.50;;;;;;;8.70;79.79;96683.19;5046279;28;20533;-60
2021/12/27 08:01:13;;;;;;;63.75;35.15;;;;;;;8.83;79.75;96677.13;5046500;28;20064;-66
2021/12/27 08:03:39;;;;;;;65.38;31.83;;;;;;;9.02;78.08;96648.66;5064525;28;20056;-67
2021/12/27 08:06:06;;;;;;;58.17;29.45;;;;;;;9.00;77.51;96635.19;5063730;28;20064;-61
2021/12/27 08:08:33;;;;;;;68.47;32.45;;;;;;;9.34;77.85;96663.78;5059288;28;20049;-60
2021/12/27 08:11:00;;;;;;;55.10;30.30;;;;;;;8.93;77.30;96590.09;5063871;28;20452;-60
2021/12/27 08:13:26;;;;;;;52.28;28.40;;;;;;;9.26;77.18;96659.31;5046036;28;20059;-61
2021/12/27 08:15:53;;;;;;;59.63;31.88;;;;;;;9.22;77.65;96669.50;5064188;28;20047;-67
2021/12/27 08:18:20;;;;;;;46.55;26.00;;;;;;;8.94;77.95;96636.69;5063807;28;20071;-60
2021/12/27 08:20:48;;;;;;;41.95;20.58;;;;;;;8.61;78.71;96608.09;5064156;28;20052;-66
2021/12/27 08:23:15;;;;;;;38.85;21.65;;;;;;;8.54;80.58;96657.66;5045985;28;20053;-60
2021/12/27 08:25:42;;;;;;;45.40;21.17;;;;;;;7.90;81.97;96591.34;5063571;28;20064;-61
2021/12/27 08:28:09;;;;;;;44.25;21.55;;;;;;;8.46;80.66;96653.16;5063463;28;20059;-66
2021/12/27 08:30:39;;;;;;;31.00;17.52;;;;;;;8.38;81.36;96649.47;5063544;28;20338;-67
2021/12/27 08:33:06;;;;;;;31.75;15.90;;;;;;;8.10;81.49;96606.72;5063210;28;20587;-60
2021/12/27 08:35:35;;;;;;;32.50;16.15;;;;;;;8.36;81.31;96662.81;5045796;28;20049;-66
2021/12/27 08:38:03;;;;;;;33.63;17.13;;;;;;;8.42;82.31;96657.81;5063433;28;20502;-61
2021/12/27 08:40:30;;;;;;;36.42;17.85;;;;;;;7.99;82.92;96600.19;5045324;28;20088;-67
2021/12/27 08:42:57;;;;;;;31.23;16.15;;;;;;;8.55;81.81;96670.31;5045356;28;20149;-61
2021/12/27 08:45:23;;;;;;;33.08;15.32;;;;;;;8.42;82.20;96646.78;5063509;28;20048;-60
2021/12/27 08:47:55;;;;;;;29.88;15.52;;;;;;;8.40;82.39;96643.59;5063975;28;20075;-60
2021/12/27 08:50:22;;;;;;;30.58;15.88;;;;;;;8.08;81.25;96587.00;5063185;28;20060;-62
2021/12/27 08:52:50;;;;;;;22.27;14.13;;;;;;;9.07;79.76;96662.16;5063701;28;20052;-67
2021/12/27 08:55:17;;;;;;;30.67;16.55;;;;;;;9.23;80.46;96660.81;5045233;28;20064;-60
2021/12/27 08:57:44;;;;;;;23.27;12.40;;;;;;;9.22;77.97;96575.53;5063241;28;20061;-66
2021/12/27 09:00:15;;;;;;;19.25;10.25;;;;;;;9.97;77.03;96634.25;5063129;28;20060;-68
2021/12/27 09:02:43;;;;;;;20.08;10.35;;;;;;;10.03;74.58;96627.19;5045181;28;20212;-61
2021/12/27 09:05:10;;;;;;;16.40;9.50;;;;;;;10.49;75.15;96638.84;5045317;28;20052;-68
2021/12/27 09:07:37;;;;;;;18.55;8.43;;;;;;;11.06;73.00;96634.63;5063688;28;20057;-68
2021/12/27 09:10:05;;;;;;;31.80;11.65;;;;;;;11.49;70.44;96631.78;5062977;28;20052;-68
2021/12/27 09:12:32;;;;;;;16.33;8.45;;;;;;;11.74;68.89;96629.19;5062944;28;20609;-60
2021/12/27 09:14:58;;;;;;;19.38;10.95;;;;;;;12.08;69.41;96625.00;5062908;28;20052;-60
2021/12/27 09:17:25;;;;;;;20.58;8.95;;;;;;;12.45;66.72;96622.78;5045190;28;20481;-62
2021/12/27 09:19:52;;;;;;;16.48;9.95;;;;;;;12.76;65.75;96622.03;5063036;28;20056;-68
2021/12/27 09:22:19;;;;;;;16.08;7.40;;;;;;;12.76;65.29;96610.91;5045123;28;20053;-67
2021/12/27 09:24:46;;;;;;;16.92;8.20;;;;;;;12.95;65.08;96613.31;5062303;28;20059;-62
2021/12/27 09:27:14;;;;;;;11.35;7.18;;;;;;;13.09;64.61;96571.66;5063282;28;20052;-68
2021/12/27 09:29:42;;;;;;;17.90;10.00;;;;;;;13.36;64.09;96585.94;5062380;28;20059;-60
2021/12/27 09:32:12;;;;;;;17.08;9.63;;;;;;;13.70;64.76;96587.84;5061712;28;20059;-66
2021/12/27 09:34:40;;;;;;;15.55;7.15;;;;;;;14.02;62.66;96617.59;5063027;28;20052;-63
2021/12/27 09:37:08;;;;;;;12.93;7.50;;;;;;;13.77;63.05;96602.97;5062524;28;20068;-70
2021/12/27 09:39:35;;;;;;;21.48;8.35;;;;;;;13.43;64.69;96597.88;5062757;28;20064;-68
2021/12/27 09:42:02;;;;;;;12.50;7.43;;;;;;;13.17;63.54;96570.47;5044672;28;20060;-61
2021/12/27 09:44:29;;;;;;;22.13;11.05;;;;;;;13.46;63.05;96594.28;5063484;28;20081;-60
2021/12/27 09:46:56;;;;;;;32.22;13.10;;;;;;;13.36;63.15;96558.91;5065810;28;20052;-66
2021/12/27 09:49:29;;;;;;;17.95;8.25;;;;;;;13.44;62.76;96605.00;5066750;28;20059;-67
2021/12/27 09:51:58;;;;;;;9.75;6.25;;;;;;;13.45;61.59;96589.88;5066418;28;20052;-61
2021/12/27 09:54:27;;;;;;;12.30;6.70;;;;;;;13.75;62.46;96599.78;5066674;28;20072;-67
2021/12/27 09:56:55;;;;;;;14.10;7.10;;;;;;;13.77;62.74;96602.97;5048423;28;20468;-66
2021/12/27 09:59:23;;;;;;;14.93;8.70;;;;;;;13.01;64.13;96533.91;5067072;28;20057;-66
2021/12/27 10:01:52;;;;;;;11.23;5.78;;;;;;;12.44;63.92;96465.59;5048305;28;20060;-61
2021/12/27 10:04:20;;;;;;;10.75;5.88;;;;;;;13.35;62.56;96571.25;5066366;28;20076;-66
2021/12/27 10:06:47;;;;;;;9.25;5.65;;;;;;;12.53;65.92;96579.94;5065016;28;20052;-68
2021/12/27 10:09:14;;;;;;;12.93;7.07;;;;;;;12.73;66.43;96578.38;5028546;28;20553;-60
2021/12/27 10:11:43;;;;;;;11.02;6.20;;;;;;;13.06;65.43;96575.22;5045950;28;20136;-63
2021/12/27 10:14:18;;;;;;;12.07;7.43;;;;;;;13.01;66.18;96561.72;5045808;28;20053;-68
2021/12/27 10:16:53;;;;;;;13.63;7.60;;;;;;;12.45;67.87;96567.22;5046459;28;20045;-62
2021/12/27 10:19:23;;;;;;;13.02;7.10;;;;;;;12.09;68.83;96526.66;5046605;28;20056;-63
2021/12/27 10:21:52;;;;;;;15.52;6.53;;;;;;;12.46;67.53;96512.44;5046360;28;20052;-63
2021/12/27 10:24:28;;;;;;;14.65;5.93;;;;;;;13.18;65.41;96554.56;5046417;28;20522;-68
2021/12/27 10:27:01;;;;;;;12.07;7.28;;;;;;;12.89;65.31;96498.16;5046244;28;20045;-62
2021/12/27 10:29:34;;;;;;;14.68;7.72;;;;;;;13.08;66.20;96544.25;5046361;28;20060;-67
2021/12/27 10:32:05;;;;;;;13.85;7.68;;;;;;;12.70;66.30;96501.34;5045851;28;20072;-68
2021/12/27 10:34:32;;;;;;;16.95;7.75;;;;;;;12.88;66.21;96541.03;5045507;28;20063;-61
2021/12/27 10:37:02;;;;;;;14.52;7.93;;;;;;;12.79;66.52;96543.41;5046123;28;20417;-67
2021/12/27 10:39:42;;;;;;;16.23;7.47;;;;;;;12.42;68.66;96529.13;5046124;28;20053;-61
2021/12/27 10:42:11;;;;;;;17.42;7.70;;;;;;;12.69;67.38;96527.56;5028151;28;20063;-68
2021/12/27 10:44:39;;;;;;;22.45;11.27;;;;;;;12.90;67.18;96516.41;5046062;28;20056;-61
2021/12/27 10:47:32;;;;;;;14.60;7.57;;;;;;;12.89;66.63;96525.16;5045148;28;20049;-65
2021/12/27 10:50:19;;;;;;;18.58;10.20;;;;;;;13.15;66.00;96516.44;5027640;28;20323;-68
2021/12/27 10:52:54;;;;;;;17.88;8.32;;;;;;;13.10;66.63;96514.06;5045283;28;20055;-68
2021/12/27 10:55:27;;;;;;;14.18;8.88;;;;;;;12.74;68.17;96521.59;5044875;28;20063;-67
2021/12/27 10:58:11;;;;;;;19.17;8.88;;;;;;;12.29;69.28;96521.53;5044530;28;20049;-67
2021/12/27 11:00:39;;;;;;;58.58;20.95;;;;;;;12.48;69.47;96493.41;5045652;28;20565;-61
2021/12/27 11:03:06;;;;;;;16.65;7.68;;;;;;;11.95;70.55;96502.44;5045386;28;20049;-67
2021/12/27 11:05:35;;;;;;;16.73;8.80;;;;;;;11.72;71.79;96427.06;5045480;28;20465;-67
2021/12/27 11:08:05;;;;;;;17.75;8.32;;;;;;;11.89;72.86;96501.22;5038126;28;20138;-67
2021/12/27 11:10:36;;;;;;;20.95;9.73;;;;;;;11.31;74.47;96447.06;5065003;28;20161;-68
2021/12/27 11:13:05;;;;;;;18.20;8.38;;;;;;;11.50;74.81;96488.34;5064846;28;20056;-68
2021/12/27 11:15:36;;;;;;;18.77;8.23;;;;;;;11.58;73.56;96467.78;5064669;28;20065;-61
2021/12/27 11:18:07;;;;;;;18.60;8.65;;;;;;;11.41;74.56;96485.94;5065097;28;20248;-60
2021/12/27 11:20:34;;;;;;;17.38;10.10;;;;;;;11.42;76.04;96486.72;5064958;28;20091;-67
2021/12/27 11:23:03;;;;;;;19.13;9.35;;;;;;;11.31;75.99;96486.69;5064695;28;20068;-61
2021/12/27 11:25:36;;;;;;;20.00;9.20;;;;;;;11.10;75.57;96453.31;5064509;28;20050;-68
2021/12/27 11:28:23;;;;;;;19.23;8.73;;;;;;;11.48;74.78;96485.16;5064377;28;20097;-67
2021/12/27 11:30:51;;;;;;;18.50;10.23;;;;;;;11.66;74.87;96488.84;5064462;28;20068;-65
2021/12/27 11:33:22;;;;;;;21.15;10.85;;;;;;;11.47;75.78;96494.69;5064618;28;20106;-67